sensor_id;sensor_type;location;lat;lon;timestamp;pressure;altitude;pressure_sealevel;temperature
15079;BMP180;6932;51.438;5.470;2023-04-24T00:01:14;99648.00;;;16.30
15079;BMP180;6932;51.438;5.470;2023-04-24T00:03:40;99652.00;;;16.30
15079;BMP180;6932;51.438;5.470;2023-04-24T00:06:07;99657.00;;;16.30
15079;BMP180;6932;51.438;5.470;2023-04-24T00:08:35;99646.00;;;16.30
15079;BMP180;6932;51.438;5.470;2023-04-24T00:11:01;99645.00;;;16.30
15079;BMP180;6932;51.438;5.470;2023-04-24T00:13:27;99652.00;;;16.20
15079;BMP180;6932;51.438;5.470;2023-04-24T00:15:55;99647.00;;;16.20
15079;BMP180;6932;51.438;5.470;2023-04-24T00:18:21;99652.00;;;16.20
15079;BMP180;6932;51.438;5.470;2023-04-24T00:20:46;99655.00;;;16.20
15079;BMP180;6932;51.438;5.470;2023-04-24T00:23:13;99660.00;;;16.20
15079;BMP180;6932;51.438;5.470;2023-04-24T00:25:39;99657.00;;;16.20
15079;BMP180;6932;51.438;5.470;2023-04-24T00:28:05;99647.00;;;16.20
15079;BMP180;6932;51.438;5.470;2023-04-24T00:30:31;99669.00;;;16.20
15079;BMP180;6932;51.438;5.470;2023-04-24T00:32:57;99653.00;;;16.20
15079;BMP180;6932;51.438;5.470;2023-04-24T00:35:23;99657.00;;;16.20
15079;BMP180;6932;51.438;5.470;2023-04-24T00:37:49;99662.00;;;16.20
15079;BMP180;6932;51.438;5.470;2023-04-24T00:40:15;99654.00;;;16.20
15079;BMP180;6932;51.438;5.470;2023-04-24T00:42:41;99657.00;;;16.20
15079;BMP180;6932;51.438;5.470;2023-04-24T00:45:09;99657.00;;;16.10
15079;BMP180;6932;51.438;5.470;2023-04-24T00:47:34;99649.00;;;16.10
15079;BMP180;6932;51.438;5.470;2023-04-24T00:50:05;99652.00;;;16.10
15079;BMP180;6932;51.438;5.470;2023-04-24T00:52:32;99652.00;;;16.10
15079;BMP180;6932;51.438;5.470;2023-04-24T00:54:58;99658.00;;;16.10
15079;BMP180;6932;51.438;5.470;2023-04-24T00:57:24;99662.00;;;16.10
15079;BMP180;6932;51.438;5.470;2023-04-24T00:59:52;99662.00;;;16.10
15079;BMP180;6932;51.438;5.470;2023-04-24T01:02:18;99672.00;;;16.10
15079;BMP180;6932;51.438;5.470;2023-04-24T01:04:44;99665.00;;;16.10
15079;BMP180;6932;51.438;5.470;2023-04-24T01:07:10;99662.00;;;16.00
15079;BMP180;6932;51.438;5.470;2023-04-24T01:09:40;99674.00;;;16.00
15079;BMP180;6932;51.438;5.470;2023-04-24T01:12:09;99661.00;;;16.00
15079;BMP180;6932;51.438;5.470;2023-04-24T01:14:37;99655.00;;;16.00
15079;BMP180;6932;51.438;5.470;2023-04-24T01:17:03;99660.00;;;16.00
15079;BMP180;6932;51.438;5.470;2023-04-24T01:19:29;99665.00;;;16.00
15079;BMP180;6932;51.438;5.470;2023-04-24T01:21:58;99670.00;;;16.00
15079;BMP180;6932;51.438;5.470;2023-04-24T01:24:28;99661.00;;;16.00
15079;BMP180;6932;51.438;5.470;2023-04-24T01:26:54;99661.00;;;16.00
15079;BMP180;6932;51.438;5.470;2023-04-24T01:29:20;99664.00;;;16.00
15079;BMP180;6932;51.438;5.470;2023-04-24T01:31:46;99662.00;;;16.00
15079;BMP180;6932;51.438;5.470;2023-04-24T01:34:13;99660.00;;;16.00
15079;BMP180;6932;51.438;5.470;2023-04-24T01:36:41;99666.00;;;16.00
15079;BMP180;6932;51.438;5.470;2023-04-24T01:39:07;99655.00;;;15.90
15079;BMP180;6932;51.438;5.470;2023-04-24T01:41:33;99663.00;;;16.00
15079;BMP180;6932;51.438;5.470;2023-04-24T01:43:59;99662.00;;;16.00
15079;BMP180;6932;51.438;5.470;2023-04-24T01:46:25;99662.00;;;16.00
15079;BMP180;6932;51.438;5.470;2023-04-24T01:48:52;99659.00;;;15.90
15079;BMP180;6932;51.438;5.470;2023-04-24T01:51:17;99660.00;;;16.00
15079;BMP180;6932;51.438;5.470;2023-04-24T01:53:43;99665.00;;;16.00
15079;BMP180;6932;51.438;5.470;2023-04-24T01:56:09;99651.00;;;16.00
15079;BMP180;6932;51.438;5.470;2023-04-24T01:58:35;99666.00;;;15.90
15079;BMP180;6932;51.438;5.470;2023-04-24T02:01:01;99671.00;;;15.90
15079;BMP180;6932;51.438;5.470;2023-04-24T02:03:27;99669.00;;;15.90
15079;BMP180;6932;51.438;5.470;2023-04-24T02:05:53;99667.00;;;15.90
15079;BMP180;6932;51.438;5.470;2023-04-24T02:08:19;99666.00;;;15.90
15079;BMP180;6932;51.438;5.470;2023-04-24T02:10:44;99668.00;;;15.90
15079;BMP180;6932;51.438;5.470;2023-04-24T02:13:10;99664.00;;;15.90
15079;BMP180;6932;51.438;5.470;2023-04-24T02:15:36;99675.00;;;15.90
15079;BMP180;6932;51.438;5.470;2023-04-24T02:18:02;99665.00;;;15.90
15079;BMP180;6932;51.438;5.470;2023-04-24T02:20:28;99678.00;;;15.90
15079;BMP180;6932;51.438;5.470;2023-04-24T02:22:53;99670.00;;;15.90
15079;BMP180;6932;51.438;5.470;2023-04-24T02:25:20;99663.00;;;15.90
15079;BMP180;6932;51.438;5.470;2023-04-24T02:28:00;99671.00;;;15.90
15079;BMP180;6932;51.438;5.470;2023-04-24T02:30:26;99674.00;;;15.90
15079;BMP180;6932;51.438;5.470;2023-04-24T02:32:51;99666.00;;;15.90
15079;BMP180;6932;51.438;5.470;2023-04-24T02:35:17;99676.00;;;15.90
15079;BMP180;6932;51.438;5.470;2023-04-24T02:37:43;99678.00;;;15.90
15079;BMP180;6932;51.438;5.470;2023-04-24T02:40:09;99676.00;;;15.90
15079;BMP180;6932;51.438;5.470;2023-04-24T02:42:35;99659.00;;;15.90
15079;BMP180;6932;51.438;5.470;2023-04-24T02:45:10;99664.00;;;15.90
15079;BMP180;6932;51.438;5.470;2023-04-24T02:47:35;99660.00;;;15.90
15079;BMP180;6932;51.438;5.470;2023-04-24T02:50:02;99656.00;;;15.90
15079;BMP180;6932;51.438;5.470;2023-04-24T02:52:28;99654.00;;;15.90
15079;BMP180;6932;51.438;5.470;2023-04-24T02:54:54;99661.00;;;15.90
15079;BMP180;6932;51.438;5.470;2023-04-24T02:57:20;99656.00;;;15.90
15079;BMP180;6932;51.438;5.470;2023-04-24T02:59:46;99668.00;;;15.90
15079;BMP180;6932;51.438;5.470;2023-04-24T03:02:11;99665.00;;;15.90
15079;BMP180;6932;51.438;5.470;2023-04-24T03:04:37;99655.00;;;15.90
15079;BMP180;6932;51.438;5.470;2023-04-24T03:07:03;99654.00;;;15.90
15079;BMP180;6932;51.438;5.470;2023-04-24T03:09:30;99662.00;;;15.90
15079;BMP180;6932;51.438;5.470;2023-04-24T03:11:55;99663.00;;;15.90
15079;BMP180;6932;51.438;5.470;2023-04-24T03:14:22;99654.00;;;15.90
15079;BMP180;6932;51.438;5.470;2023-04-24T03:16:47;99663.00;;;15.90
15079;BMP180;6932;51.438;5.470;2023-04-24T03:19:13;99661.00;;;15.90
15079;BMP180;6932;51.438;5.470;2023-04-24T03:21:39;99661.00;;;15.90
15079;BMP180;6932;51.438;5.470;2023-04-24T03:24:08;99666.00;;;15.90
15079;BMP180;6932;51.438;5.470;2023-04-24T03:26:35;99662.00;;;15.90
15079;BMP180;6932;51.438;5.470;2023-04-24T03:29:01;99667.00;;;15.80
15079;BMP180;6932;51.438;5.470;2023-04-24T03:31:27;99666.00;;;15.80
15079;BMP180;6932;51.438;5.470;2023-04-24T03:33:52;99660.00;;;15.80
15079;BMP180;6932;51.438;5.470;2023-04-24T03:36:18;99666.00;;;15.80
15079;BMP180;6932;51.438;5.470;2023-04-24T03:38:45;99657.00;;;15.80
15079;BMP180;6932;51.438;5.470;2023-04-24T03:41:11;99654.00;;;15.80
15079;BMP180;6932;51.438;5.470;2023-04-24T03:43:37;99658.00;;;15.80
15079;BMP180;6932;51.438;5.470;2023-04-24T03:46:03;99660.00;;;15.80
15079;BMP180;6932;51.438;5.470;2023-04-24T03:48:29;99660.00;;;15.80
15079;BMP180;6932;51.438;5.470;2023-04-24T03:50:55;99664.00;;;15.80
15079;BMP180;6932;51.438;5.470;2023-04-24T03:53:21;99654.00;;;15.80
15079;BMP180;6932;51.438;5.470;2023-04-24T03:55:47;99658.00;;;15.80
15079;BMP180;6932;51.438;5.470;2023-04-24T03:58:13;99653.00;;;15.80
15079;BMP180;6932;51.438;5.470;2023-04-24T04:00:41;99657.00;;;15.80
15079;BMP180;6932;51.438;5.470;2023-04-24T04:03:07;99661.00;;;15.80
15079;BMP180;6932;51.438;5.470;2023-04-24T04:05:33;99655.00;;;15.80
15079;BMP180;6932;51.438;5.470;2023-04-24T04:07:58;99654.00;;;15.80
15079;BMP180;6932;51.438;5.470;2023-04-24T04:10:24;99666.00;;;15.80
15079;BMP180;6932;51.438;5.470;2023-04-24T04:12:50;99658.00;;;15.80
15079;BMP180;6932;51.438;5.470;2023-04-24T04:15:15;99663.00;;;15.80
15079;BMP180;6932;51.438;5.470;2023-04-24T04:17:41;99662.00;;;15.70
15079;BMP180;6932;51.438;5.470;2023-04-24T04:20:07;99667.00;;;15.80
15079;BMP180;6932;51.438;5.470;2023-04-24T04:22:36;99670.00;;;15.70
15079;BMP180;6932;51.438;5.470;2023-04-24T04:25:03;99672.00;;;15.70
15079;BMP180;6932;51.438;5.470;2023-04-24T04:27:30;99660.00;;;15.70
15079;BMP180;6932;51.438;5.470;2023-04-24T04:29:58;99669.00;;;15.70
15079;BMP180;6932;51.438;5.470;2023-04-24T04:32:34;99677.00;;;15.70
15079;BMP180;6932;51.438;5.470;2023-04-24T04:35:03;99666.00;;;15.70
15079;BMP180;6932;51.438;5.470;2023-04-24T04:37:33;99671.00;;;15.70
15079;BMP180;6932;51.438;5.470;2023-04-24T04:39:59;99668.00;;;15.70
15079;BMP180;6932;51.438;5.470;2023-04-24T04:42:28;99678.00;;;15.60
15079;BMP180;6932;51.438;5.470;2023-04-24T04:44:55;99673.00;;;15.60
15079;BMP180;6932;51.438;5.470;2023-04-24T04:47:23;99665.00;;;15.60
15079;BMP180;6932;51.438;5.470;2023-04-24T04:49:49;99672.00;;;15.60
15079;BMP180;6932;51.438;5.470;2023-04-24T04:52:16;99673.00;;;15.60
15079;BMP180;6932;51.438;5.470;2023-04-24T04:54:43;99668.00;;;15.60
15079;BMP180;6932;51.438;5.470;2023-04-24T04:57:09;99666.00;;;15.60
15079;BMP180;6932;51.438;5.470;2023-04-24T04:59:34;99673.00;;;15.60
15079;BMP180;6932;51.438;5.470;2023-04-24T05:02:00;99691.00;;;15.50
15079;BMP180;6932;51.438;5.470;2023-04-24T05:04:26;99678.00;;;15.60
15079;BMP180;6932;51.438;5.470;2023-04-24T05:06:52;99683.00;;;15.50
15079;BMP180;6932;51.438;5.470;2023-04-24T05:09:18;99688.00;;;15.50
15079;BMP180;6932;51.438;5.470;2023-04-24T05:11:44;99683.00;;;15.50
15079;BMP180;6932;51.438;5.470;2023-04-24T05:14:10;99680.00;;;15.50
15079;BMP180;6932;51.438;5.470;2023-04-24T05:16:38;99688.00;;;15.50
15079;BMP180;6932;51.438;5.470;2023-04-24T05:19:04;99704.00;;;15.50
15079;BMP180;6932;51.438;5.470;2023-04-24T05:21:31;99699.00;;;15.50
15079;BMP180;6932;51.438;5.470;2023-04-24T05:23:57;99708.00;;;15.50
15079;BMP180;6932;51.438;5.470;2023-04-24T05:26:23;99697.00;;;15.50
15079;BMP180;6932;51.438;5.470;2023-04-24T05:28:48;99703.00;;;15.50
15079;BMP180;6932;51.438;5.470;2023-04-24T05:31:15;99705.00;;;15.50
15079;BMP180;6932;51.438;5.470;2023-04-24T05:33:43;99717.00;;;15.50
15079;BMP180;6932;51.438;5.470;2023-04-24T05:36:08;99720.00;;;15.50
15079;BMP180;6932;51.438;5.470;2023-04-24T05:38:34;99714.00;;;15.50
15079;BMP180;6932;51.438;5.470;2023-04-24T05:41:00;99731.00;;;15.50
15079;BMP180;6932;51.438;5.470;2023-04-24T05:43:26;99726.00;;;15.40
15079;BMP180;6932;51.438;5.470;2023-04-24T05:45:52;99727.00;;;15.40
15079;BMP180;6932;51.438;5.470;2023-04-24T05:48:19;99733.00;;;15.40
15079;BMP180;6932;51.438;5.470;2023-04-24T05:50:45;99717.00;;;15.40
15079;BMP180;6932;51.438;5.470;2023-04-24T05:53:10;99722.00;;;15.40
15079;BMP180;6932;51.438;5.470;2023-04-24T05:55:36;99724.00;;;15.30
15079;BMP180;6932;51.438;5.470;2023-04-24T05:58:02;99728.00;;;15.30
15079;BMP180;6932;51.438;5.470;2023-04-24T06:00:28;99733.00;;;15.30
15079;BMP180;6932;51.438;5.470;2023-04-24T06:02:54;99736.00;;;15.30
15079;BMP180;6932;51.438;5.470;2023-04-24T06:05:20;99738.00;;;15.30
15079;BMP180;6932;51.438;5.470;2023-04-24T06:07:46;99748.00;;;15.20
15079;BMP180;6932;51.438;5.470;2023-04-24T06:10:13;99737.00;;;15.20
15079;BMP180;6932;51.438;5.470;2023-04-24T06:12:39;99751.00;;;15.20
15079;BMP180;6932;51.438;5.470;2023-04-24T06:15:06;99740.00;;;15.20
15079;BMP180;6932;51.438;5.470;2023-04-24T06:17:32;99764.00;;;15.20
15079;BMP180;6932;51.438;5.470;2023-04-24T06:19:58;99759.00;;;15.20
15079;BMP180;6932;51.438;5.470;2023-04-24T06:22:24;99782.00;;;15.20
15079;BMP180;6932;51.438;5.470;2023-04-24T06:24:49;99769.00;;;15.20
15079;BMP180;6932;51.438;5.470;2023-04-24T06:27:15;99785.00;;;15.20
15079;BMP180;6932;51.438;5.470;2023-04-24T06:29:41;99787.00;;;15.20
15079;BMP180;6932;51.438;5.470;2023-04-24T06:32:06;99784.00;;;15.20
15079;BMP180;6932;51.438;5.470;2023-04-24T06:34:33;99797.00;;;15.20
15079;BMP180;6932;51.438;5.470;2023-04-24T06:37:00;99793.00;;;15.20
15079;BMP180;6932;51.438;5.470;2023-04-24T06:39:26;99811.00;;;15.20
15079;BMP180;6932;51.438;5.470;2023-04-24T06:41:51;99818.00;;;15.20
15079;BMP180;6932;51.438;5.470;2023-04-24T06:44:17;99818.00;;;15.20
15079;BMP180;6932;51.438;5.470;2023-04-24T06:46:43;99825.00;;;15.20
15079;BMP180;6932;51.438;5.470;2023-04-24T06:49:09;99842.00;;;15.20
15079;BMP180;6932;51.438;5.470;2023-04-24T06:51:35;99849.00;;;15.20
15079;BMP180;6932;51.438;5.470;2023-04-24T06:54:00;99859.00;;;15.20
15079;BMP180;6932;51.438;5.470;2023-04-24T06:56:26;99863.00;;;15.20
15079;BMP180;6932;51.438;5.470;2023-04-24T06:58:54;99869.00;;;15.20
15079;BMP180;6932;51.438;5.470;2023-04-24T07:01:20;99859.00;;;15.20
15079;BMP180;6932;51.438;5.470;2023-04-24T07:03:46;99890.00;;;15.20
15079;BMP180;6932;51.438;5.470;2023-04-24T07:06:12;99880.00;;;15.20
15079;BMP180;6932;51.438;5.470;2023-04-24T07:08:38;99897.00;;;15.20
15079;BMP180;6932;51.438;5.470;2023-04-24T07:11:04;99907.00;;;15.20
15079;BMP180;6932;51.438;5.470;2023-04-24T07:13:30;99916.00;;;15.20
15079;BMP180;6932;51.438;5.470;2023-04-24T07:15:55;99926.00;;;15.20
15079;BMP180;6932;51.438;5.470;2023-04-24T07:18:22;99922.00;;;15.20
15079;BMP180;6932;51.438;5.470;2023-04-24T07:20:48;99940.00;;;15.20
15079;BMP180;6932;51.438;5.470;2023-04-24T07:23:16;99943.00;;;15.20
15079;BMP180;6932;51.438;5.470;2023-04-24T07:25:42;99949.00;;;15.20
15079;BMP180;6932;51.438;5.470;2023-04-24T07:28:08;99960.00;;;15.20
15079;BMP180;6932;51.438;5.470;2023-04-24T07:30:34;99961.00;;;15.10
15079;BMP180;6932;51.438;5.470;2023-04-24T07:33:00;99974.00;;;15.20
15079;BMP180;6932;51.438;5.470;2023-04-24T07:35:28;99981.00;;;15.20
15079;BMP180;6932;51.438;5.470;2023-04-24T07:37:54;99984.00;;;15.20
15079;BMP180;6932;51.438;5.470;2023-04-24T07:44:23;100001.00;;;15.10
15079;BMP180;6932;51.438;5.470;2023-04-24T07:46:49;100005.00;;;15.10
15079;BMP180;6932;51.438;5.470;2023-04-24T07:49:15;100005.00;;;15.10
15079;BMP180;6932;51.438;5.470;2023-04-24T07:51:40;100024.00;;;15.10
15079;BMP180;6932;51.438;5.470;2023-04-24T07:54:06;100040.00;;;15.10
15079;BMP180;6932;51.438;5.470;2023-04-24T07:56:33;100043.00;;;15.10
15079;BMP180;6932;51.438;5.470;2023-04-24T07:58:59;100053.00;;;15.10
15079;BMP180;6932;51.438;5.470;2023-04-24T08:01:26;100052.00;;;15.10
15079;BMP180;6932;51.438;5.470;2023-04-24T08:03:52;100068.00;;;15.00
15079;BMP180;6932;51.438;5.470;2023-04-24T08:06:18;100067.00;;;15.10
15079;BMP180;6932;51.438;5.470;2023-04-24T08:08:44;100075.00;;;15.10
15079;BMP180;6932;51.438;5.470;2023-04-24T08:11:09;100081.00;;;15.30
15079;BMP180;6932;51.438;5.470;2023-04-24T08:13:35;99990.00;;;15.30
15079;BMP180;6932;51.438;5.470;2023-04-24T08:16:01;100005.00;;;15.20
15079;BMP180;6932;51.438;5.470;2023-04-24T08:18:27;99992.00;;;14.90
15079;BMP180;6932;51.438;5.470;2023-04-24T08:20:53;100013.00;;;14.70
15079;BMP180;6932;51.438;5.470;2023-04-24T08:23:19;100016.00;;;14.50
15079;BMP180;6932;51.438;5.470;2023-04-24T08:25:44;100118.00;;;14.30
15079;BMP180;6932;51.438;5.470;2023-04-24T08:28:10;100123.00;;;14.20
15079;BMP180;6932;51.438;5.470;2023-04-24T08:30:36;100120.00;;;14.20
15079;BMP180;6932;51.438;5.470;2023-04-24T08:33:03;100129.00;;;14.30
15079;BMP180;6932;51.438;5.470;2023-04-24T08:35:29;100137.00;;;14.40
15079;BMP180;6932;51.438;5.470;2023-04-24T08:37:55;100134.00;;;14.50
15079;BMP180;6932;51.438;5.470;2023-04-24T08:40:34;100138.00;;;14.60
15079;BMP180;6932;51.438;5.470;2023-04-24T08:43:00;100144.00;;;14.60
15079;BMP180;6932;51.438;5.470;2023-04-24T08:45:26;100138.00;;;14.70
15079;BMP180;6932;51.438;5.470;2023-04-24T08:47:53;100149.00;;;14.70
15079;BMP180;6932;51.438;5.470;2023-04-24T08:50:24;100150.00;;;14.80
15079;BMP180;6932;51.438;5.470;2023-04-24T08:52:51;100162.00;;;14.80
15079;BMP180;6932;51.438;5.470;2023-04-24T08:55:23;100169.00;;;14.90
15079;BMP180;6932;51.438;5.470;2023-04-24T08:57:52;100171.00;;;15.00
15079;BMP180;6932;51.438;5.470;2023-04-24T09:00:21;100181.00;;;15.00
15079;BMP180;6932;51.438;5.470;2023-04-24T09:02:49;100156.00;;;15.10
15079;BMP180;6932;51.438;5.470;2023-04-24T09:05:17;100185.00;;;15.20
15079;BMP180;6932;51.438;5.470;2023-04-24T09:07:49;100195.00;;;15.20
15079;BMP180;6932;51.438;5.470;2023-04-24T09:10:16;100181.00;;;15.30
15079;BMP180;6932;51.438;5.470;2023-04-24T09:12:43;100198.00;;;15.30
15079;BMP180;6932;51.438;5.470;2023-04-24T09:15:10;100199.00;;;15.30
15079;BMP180;6932;51.438;5.470;2023-04-24T09:17:36;100205.00;;;15.30
15079;BMP180;6932;51.438;5.470;2023-04-24T09:20:03;100207.00;;;15.30
15079;BMP180;6932;51.438;5.470;2023-04-24T09:22:30;100220.00;;;15.30
15079;BMP180;6932;51.438;5.470;2023-04-24T09:25:07;100214.00;;;15.30
15079;BMP180;6932;51.438;5.470;2023-04-24T09:27:34;100226.00;;;15.30
15079;BMP180;6932;51.438;5.470;2023-04-24T09:30:02;100233.00;;;15.30
15079;BMP180;6932;51.438;5.470;2023-04-24T09:32:28;100231.00;;;15.30
15079;BMP180;6932;51.438;5.470;2023-04-24T09:35:11;100238.00;;;15.40
15079;BMP180;6932;51.438;5.470;2023-04-24T09:37:40;100236.00;;;15.40
15079;BMP180;6932;51.438;5.470;2023-04-24T09:40:18;100248.00;;;15.40
15079;BMP180;6932;51.438;5.470;2023-04-24T09:42:57;100245.00;;;15.40
15079;BMP180;6932;51.438;5.470;2023-04-24T09:45:38;100259.00;;;15.40
15079;BMP180;6932;51.438;5.470;2023-04-24T09:48:05;100263.00;;;15.40
15079;BMP180;6932;51.438;5.470;2023-04-24T09:50:32;100245.00;;;15.50
15079;BMP180;6932;51.438;5.470;2023-04-24T09:53:05;100264.00;;;15.50
15079;BMP180;6932;51.438;5.470;2023-04-24T09:55:45;100266.00;;;15.50
15079;BMP180;6932;51.438;5.470;2023-04-24T09:58:13;100273.00;;;15.50
15079;BMP180;6932;51.438;5.470;2023-04-24T10:00:39;100273.00;;;15.50
15079;BMP180;6932;51.438;5.470;2023-04-24T10:03:06;100277.00;;;15.50
15079;BMP180;6932;51.438;5.470;2023-04-24T10:05:34;100276.00;;;15.50
15079;BMP180;6932;51.438;5.470;2023-04-24T10:08:06;100286.00;;;15.50
15079;BMP180;6932;51.438;5.470;2023-04-24T10:10:35;100287.00;;;15.60
15079;BMP180;6932;51.438;5.470;2023-04-24T10:13:04;100290.00;;;15.70
15079;BMP180;6932;51.438;5.470;2023-04-24T10:15:30;100277.00;;;15.70
15079;BMP180;6932;51.438;5.470;2023-04-24T10:17:58;100288.00;;;15.80
15079;BMP180;6932;51.438;5.470;2023-04-24T10:20:28;100295.00;;;15.90
15079;BMP180;6932;51.438;5.470;2023-04-24T10:22:59;100287.00;;;15.90
15079;BMP180;6932;51.438;5.470;2023-04-24T10:25:31;100297.00;;;16.00
15079;BMP180;6932;51.438;5.470;2023-04-24T10:27:59;100286.00;;;16.00
15079;BMP180;6932;51.438;5.470;2023-04-24T10:30:31;100294.00;;;16.00
15079;BMP180;6932;51.438;5.470;2023-04-24T10:33:16;100301.00;;;16.10
15079;BMP180;6932;51.438;5.470;2023-04-24T10:35:46;100294.00;;;16.10
15079;BMP180;6932;51.438;5.470;2023-04-24T10:38:22;100300.00;;;16.10
15079;BMP180;6932;51.438;5.470;2023-04-24T10:40:50;100316.00;;;16.10
15079;BMP180;6932;51.438;5.470;2023-04-24T10:43:18;100317.00;;;16.20
15079;BMP180;6932;51.438;5.470;2023-04-24T10:46:04;100325.00;;;16.20
15079;BMP180;6932;51.438;5.470;2023-04-24T10:48:32;100334.00;;;16.20
15079;BMP180;6932;51.438;5.470;2023-04-24T10:50:58;100335.00;;;16.20
15079;BMP180;6932;51.438;5.470;2023-04-24T10:53:31;100332.00;;;16.20
15079;BMP180;6932;51.438;5.470;2023-04-24T10:56:05;100337.00;;;16.10
15079;BMP180;6932;51.438;5.470;2023-04-24T10:58:53;100345.00;;;16.10
15079;BMP180;6932;51.438;5.470;2023-04-24T11:01:32;100342.00;;;16.10
15079;BMP180;6932;51.438;5.470;2023-04-24T11:04:03;100350.00;;;16.10
15079;BMP180;6932;51.438;5.470;2023-04-24T11:06:38;100354.00;;;16.20
15079;BMP180;6932;51.438;5.470;2023-04-24T11:09:09;100354.00;;;16.20
15079;BMP180;6932;51.438;5.470;2023-04-24T11:11:44;100359.00;;;16.20
15079;BMP180;6932;51.438;5.470;2023-04-24T11:14:10;100367.00;;;16.20
15079;BMP180;6932;51.438;5.470;2023-04-24T11:16:52;100363.00;;;16.30
15079;BMP180;6932;51.438;5.470;2023-04-24T11:19:23;100355.00;;;16.30
15079;BMP180;6932;51.438;5.470;2023-04-24T11:22:13;100369.00;;;16.30
15079;BMP180;6932;51.438;5.470;2023-04-24T11:30:53;100385.00;;;16.30
15079;BMP180;6932;51.438;5.470;2023-04-24T11:33:20;100377.00;;;16.30
15079;BMP180;6932;51.438;5.470;2023-04-24T11:35:47;100394.00;;;16.30
15079;BMP180;6932;51.438;5.470;2023-04-24T11:38:14;100392.00;;;16.30
15079;BMP180;6932;51.438;5.470;2023-04-24T11:40:40;100397.00;;;16.30
15079;BMP180;6932;51.438;5.470;2023-04-24T11:43:06;100394.00;;;16.30
15079;BMP180;6932;51.438;5.470;2023-04-24T11:45:32;100405.00;;;16.40
15079;BMP180;6932;51.438;5.470;2023-04-24T11:55:29;100401.00;;;16.30
15079;BMP180;6932;51.438;5.470;2023-04-24T11:57:58;100408.00;;;16.30
15079;BMP180;6932;51.438;5.470;2023-04-24T12:00:32;100423.00;;;16.40
15079;BMP180;6932;51.438;5.470;2023-04-24T12:05:31;100407.00;;;16.40
15079;BMP180;6932;51.438;5.470;2023-04-24T12:07:57;100424.00;;;16.40
15079;BMP180;6932;51.438;5.470;2023-04-24T12:10:26;100428.00;;;16.40
15079;BMP180;6932;51.438;5.470;2023-04-24T12:12:53;100429.00;;;16.40
15079;BMP180;6932;51.438;5.470;2023-04-24T12:50:44;100469.00;;;16.80
15079;BMP180;6932;51.438;5.470;2023-04-24T12:53:10;100486.00;;;16.80
15079;BMP180;6932;51.438;5.470;2023-04-24T12:55:37;100462.00;;;16.90
15079;BMP180;6932;51.438;5.470;2023-04-24T12:58:03;100460.00;;;16.90
15079;BMP180;6932;51.438;5.470;2023-04-24T13:00:29;100469.00;;;17.00
15079;BMP180;6932;51.438;5.470;2023-04-24T13:02:55;100467.00;;;17.00
15079;BMP180;6932;51.438;5.470;2023-04-24T13:05:21;100473.00;;;17.00
15079;BMP180;6932;51.438;5.470;2023-04-24T13:07:46;100475.00;;;17.00
15079;BMP180;6932;51.438;5.470;2023-04-24T13:10:12;100471.00;;;17.00
15079;BMP180;6932;51.438;5.470;2023-04-24T13:12:39;100464.00;;;17.10
15079;BMP180;6932;51.438;5.470;2023-04-24T13:15:06;100486.00;;;17.10
15079;BMP180;6932;51.438;5.470;2023-04-24T13:17:32;100482.00;;;17.10
15079;BMP180;6932;51.438;5.470;2023-04-24T13:19:58;100485.00;;;17.20
15079;BMP180;6932;51.438;5.470;2023-04-24T13:22:24;100477.00;;;17.20
15079;BMP180;6932;51.438;5.470;2023-04-24T13:28:31;100491.00;;;17.10
15079;BMP180;6932;51.438;5.470;2023-04-24T13:30:57;100491.00;;;17.10
15079;BMP180;6932;51.438;5.470;2023-04-24T13:33:22;100501.00;;;17.10
15079;BMP180;6932;51.438;5.470;2023-04-24T13:35:48;100500.00;;;17.10
15079;BMP180;6932;51.438;5.470;2023-04-24T13:38:14;100500.00;;;17.10
15079;BMP180;6932;51.438;5.470;2023-04-24T13:40:40;100502.00;;;17.00
15079;BMP180;6932;51.438;5.470;2023-04-24T13:43:06;100514.00;;;17.00
15079;BMP180;6932;51.438;5.470;2023-04-24T13:45:31;100511.00;;;16.90
15079;BMP180;6932;51.438;5.470;2023-04-24T13:47:57;100505.00;;;16.90
15079;BMP180;6932;51.438;5.470;2023-04-24T13:50:23;100510.00;;;16.80
15079;BMP180;6932;51.438;5.470;2023-04-24T13:52:48;100510.00;;;16.80
15079;BMP180;6932;51.438;5.470;2023-04-24T13:55:14;100513.00;;;16.70
15079;BMP180;6932;51.438;5.470;2023-04-24T13:57:40;100521.00;;;16.70
15079;BMP180;6932;51.438;5.470;2023-04-24T14:00:07;100523.00;;;16.60
15079;BMP180;6932;51.438;5.470;2023-04-24T14:02:36;100517.00;;;16.60
15079;BMP180;6932;51.438;5.470;2023-04-24T14:05:02;100519.00;;;16.60
15079;BMP180;6932;51.438;5.470;2023-04-24T14:07:29;100520.00;;;16.60
15079;BMP180;6932;51.438;5.470;2023-04-24T14:09:54;100518.00;;;16.60
15079;BMP180;6932;51.438;5.470;2023-04-24T14:12:20;100511.00;;;16.60
15079;BMP180;6932;51.438;5.470;2023-04-24T14:14:47;100508.00;;;16.60
15079;BMP180;6932;51.438;5.470;2023-04-24T14:17:14;100513.00;;;16.60
15079;BMP180;6932;51.438;5.470;2023-04-24T14:19:40;100509.00;;;16.70
15079;BMP180;6932;51.438;5.470;2023-04-24T14:22:05;100511.00;;;16.70
15079;BMP180;6932;51.438;5.470;2023-04-24T14:24:31;100497.00;;;16.70
15079;BMP180;6932;51.438;5.470;2023-04-24T14:26:57;100515.00;;;16.70
15079;BMP180;6932;51.438;5.470;2023-04-24T14:29:23;100512.00;;;16.70
15079;BMP180;6932;51.438;5.470;2023-04-24T14:31:49;100516.00;;;16.70
15079;BMP180;6932;51.438;5.470;2023-04-24T14:34:15;100536.00;;;16.70
15079;BMP180;6932;51.438;5.470;2023-04-24T14:36:41;100507.00;;;16.60
15079;BMP180;6932;51.438;5.470;2023-04-24T14:39:07;100532.00;;;16.60
15079;BMP180;6932;51.438;5.470;2023-04-24T14:41:33;100533.00;;;16.60
15079;BMP180;6932;51.438;5.470;2023-04-24T14:44:02;100522.00;;;16.50
15079;BMP180;6932;51.438;5.470;2023-04-24T14:46:29;100528.00;;;16.50
15079;BMP180;6932;51.438;5.470;2023-04-24T14:48:56;100513.00;;;16.50
15079;BMP180;6932;51.438;5.470;2023-04-24T14:51:23;100520.00;;;16.40
15079;BMP180;6932;51.438;5.470;2023-04-24T14:53:49;100529.00;;;16.40
15079;BMP180;6932;51.438;5.470;2023-04-24T14:56:15;100506.00;;;16.40
15079;BMP180;6932;51.438;5.470;2023-04-24T14:58:41;100530.00;;;16.50
15079;BMP180;6932;51.438;5.470;2023-04-24T15:04:56;100523.00;;;16.40
15079;BMP180;6932;51.438;5.470;2023-04-24T15:07:22;100524.00;;;16.50
15079;BMP180;6932;51.438;5.470;2023-04-24T15:09:48;100516.00;;;16.50
15079;BMP180;6932;51.438;5.470;2023-04-24T15:12:14;100521.00;;;16.60
15079;BMP180;6932;51.438;5.470;2023-04-24T15:14:39;100525.00;;;16.60
15079;BMP180;6932;51.438;5.470;2023-04-24T15:17:05;100530.00;;;16.70
15079;BMP180;6932;51.438;5.470;2023-04-24T15:19:31;100525.00;;;16.70